createdAt,value
2019-01-27T00:01:56.921Z,4.90
2019-01-27T00:04:27.962Z,4.67
2019-01-27T00:06:59.240Z,4.30
2019-01-27T00:09:29.986Z,4.47
2019-01-27T00:12:01.315Z,4.50
2019-01-27T00:14:32.543Z,4.73
2019-01-27T00:17:03.467Z,5.10
2019-01-27T00:19:34.514Z,4.40
2019-01-27T00:22:05.959Z,4.10
2019-01-27T00:24:36.704Z,4.67
2019-01-27T00:27:07.683Z,4.40
2019-01-27T00:29:38.697Z,5.00
2019-01-27T00:32:09.477Z,4.30
2019-01-27T00:34:40.440Z,4.00
2019-01-27T00:37:11.337Z,4.37
2019-01-27T00:39:42.316Z,4.00
2019-01-27T00:42:13.357Z,4.00
2019-01-27T00:44:44.104Z,4.30
2019-01-27T00:47:14.859Z,3.93
2019-01-27T00:49:45.601Z,4.00
2019-01-27T00:52:16.429Z,3.73
2019-01-27T00:54:47.177Z,3.87
2019-01-27T00:57:18.231Z,3.83
2019-01-27T00:59:48.969Z,4.00
2019-01-27T01:02:20.033Z,4.03
2019-01-27T01:04:50.916Z,4.20
2019-01-27T01:07:22.031Z,3.67
2019-01-27T01:09:53.075Z,4.00
2019-01-27T01:12:23.897Z,3.47
2019-01-27T01:14:54.945Z,3.30
2019-01-27T01:17:25.923Z,3.33
2019-01-27T01:19:56.661Z,3.73
2019-01-27T01:22:27.988Z,3.37
2019-01-27T01:24:59.128Z,3.20
2019-01-27T01:27:30.110Z,3.63
2019-01-27T01:30:01.314Z,3.23
2019-01-27T01:32:33.435Z,3.27
2019-01-27T01:35:05.096Z,3.30
2019-01-27T01:37:36.773Z,3.20
2019-01-27T01:40:09.801Z,3.00
2019-01-27T01:42:40.782Z,3.20
2019-01-27T01:45:20.136Z,3.27
2019-01-27T01:47:51.220Z,2.90
2019-01-27T01:50:22.392Z,3.00
2019-01-27T01:52:53.316Z,3.33
2019-01-27T01:55:24.542Z,3.00
2019-01-27T01:57:55.428Z,3.00
2019-01-27T02:00:26.846Z,3.27
2019-01-27T02:02:57.708Z,2.83
2019-01-27T02:05:28.527Z,2.77
2019-01-27T02:07:59.669Z,2.60
2019-01-27T02:10:30.581Z,2.37
2019-01-27T02:13:02.347Z,2.90
2019-01-27T02:15:59.180Z,2.40
2019-01-27T02:18:30.341Z,2.30
2019-01-27T02:21:01.491Z,2.23
2019-01-27T02:23:32.905Z,2.37
2019-01-27T02:26:04.556Z,2.23
2019-01-27T02:28:35.544Z,2.33
2019-01-27T02:31:06.534Z,2.27
2019-01-27T02:33:37.522Z,2.33
2019-01-27T02:36:08.533Z,2.37
2019-01-27T02:38:39.853Z,2.40
2019-01-27T02:41:10.934Z,2.40
2019-01-27T02:43:41.747Z,2.27
2019-01-27T02:46:12.768Z,2.30
2019-01-27T02:48:43.569Z,2.20
2019-01-27T02:51:15.008Z,2.20
2019-01-27T02:53:46.279Z,2.20
2019-01-27T02:56:17.127Z,2.70
2019-01-27T02:58:48.264Z,2.30
2019-01-27T03:01:19.280Z,2.30
2019-01-27T03:03:50.223Z,2.10
2019-01-27T03:06:27.874Z,2.17
2019-01-27T03:09:16.270Z,2.00
2019-01-27T03:11:50.784Z,1.73
2019-01-27T03:14:22.256Z,2.00
2019-01-27T03:16:54.285Z,1.90
2019-01-27T03:19:25.429Z,2.10
2019-01-27T03:21:57.168Z,1.90
2019-01-27T03:24:28.150Z,1.90
2019-01-27T03:26:59.320Z,1.90
2019-01-27T03:29:30.428Z,1.87
2019-01-27T03:32:02.220Z,2.10
2019-01-27T03:34:33.540Z,2.13
2019-01-27T03:37:05.755Z,1.80
2019-01-27T03:39:36.757Z,2.00
2019-01-27T03:42:07.948Z,2.00
2019-01-27T03:44:39.020Z,1.80
2019-01-27T03:47:10.031Z,1.57
2019-01-27T03:49:41.035Z,1.77
2019-01-27T03:52:12.030Z,1.60
2019-01-27T03:54:43.152Z,1.70
2019-01-27T03:57:14.147Z,1.90
2019-01-27T03:59:45.390Z,1.70
2019-01-27T04:02:16.167Z,1.73
2019-01-27T04:04:47.325Z,1.50
2019-01-27T04:07:18.689Z,1.60
2019-01-27T04:09:49.688Z,1.63
2019-01-27T04:12:20.857Z,1.70
2019-01-27T04:14:51.851Z,1.87
2019-01-27T04:17:22.707Z,2.00
2019-01-27T04:19:53.547Z,1.70
2019-01-27T04:22:24.405Z,1.90
2019-01-27T04:24:55.241Z,1.97
2019-01-27T04:27:26.381Z,2.30
2019-01-27T04:29:57.413Z,2.27
2019-01-27T04:32:28.746Z,1.80
2019-01-27T04:34:59.510Z,1.90
2019-01-27T04:37:30.754Z,2.07
2019-01-27T04:40:01.765Z,1.90
2019-01-27T04:42:32.535Z,2.00
2019-01-27T04:45:03.684Z,2.00
2019-01-27T04:47:34.700Z,1.63
2019-01-27T04:50:07.550Z,1.83
2019-01-27T04:52:38.635Z,1.47
2019-01-27T04:55:11.276Z,1.80
2019-01-27T04:57:42.369Z,2.00
2019-01-27T05:00:15.881Z,1.90
2019-01-27T05:03:08.617Z,1.70
2019-01-27T05:05:39.682Z,1.90
2019-01-27T05:08:10.547Z,2.13
2019-01-27T05:10:41.635Z,2.10
2019-01-27T05:13:12.432Z,2.33
2019-01-27T05:15:43.428Z,2.20
2019-01-27T05:18:14.453Z,1.80
2019-01-27T05:20:45.286Z,1.60
2019-01-27T05:23:16.054Z,1.93
2019-01-27T05:25:46.827Z,1.70
2019-01-27T05:28:17.605Z,1.97
2019-01-27T05:30:48.819Z,1.60
2019-01-27T05:33:19.826Z,1.90
2019-01-27T05:35:50.585Z,1.80
2019-01-27T05:38:21.586Z,1.77
2019-01-27T05:40:52.596Z,1.83
2019-01-27T05:43:23.368Z,1.80
2019-01-27T05:45:54.127Z,1.53
2019-01-27T05:48:24.910Z,1.90
2019-01-27T05:50:55.679Z,1.80
2019-01-27T05:53:26.484Z,1.70
2019-01-27T05:55:57.743Z,1.80
2019-01-27T05:58:28.636Z,1.80
2019-01-27T06:00:59.488Z,2.00
2019-01-27T06:03:30.332Z,1.90
2019-01-27T06:06:01.364Z,2.10
2019-01-27T06:08:32.335Z,1.90
2019-01-27T06:11:03.075Z,2.03
2019-01-27T06:13:33.908Z,1.60
2019-01-27T06:16:05.961Z,1.80
2019-01-27T06:18:36.878Z,2.03
2019-01-27T06:21:08.033Z,1.80
2019-01-27T06:23:38.890Z,1.93
2019-01-27T06:26:09.768Z,1.93
2019-01-27T06:28:40.790Z,1.90
2019-01-27T06:31:12.135Z,2.00
2019-01-27T06:33:48.098Z,1.70
2019-01-27T06:36:19.185Z,1.87
2019-01-27T06:38:50.287Z,1.90
2019-01-27T06:41:21.046Z,1.97
2019-01-27T06:43:51.907Z,1.90
2019-01-27T06:46:22.664Z,1.87
2019-01-27T06:48:53.448Z,1.97
2019-01-27T06:51:24.207Z,1.93
2019-01-27T06:53:55.165Z,2.10
2019-01-27T06:56:26.064Z,2.10
2019-01-27T06:59:03.181Z,2.23
2019-01-27T07:01:44.768Z,2.20
2019-01-27T07:04:31.921Z,2.10
2019-01-27T07:07:10.292Z,2.17
2019-01-27T07:10:09.652Z,2.17
2019-01-27T07:12:57.011Z,2.20
2019-01-27T07:15:45.973Z,2.40
2019-01-27T07:18:29.244Z,2.30
2019-01-27T07:21:06.602Z,2.20
2019-01-27T07:23:55.059Z,2.30
2019-01-27T07:26:47.591Z,2.30
2019-01-27T07:29:37.684Z,2.03
2019-01-27T07:32:19.490Z,2.23
2019-01-27T07:34:59.796Z,2.07
2019-01-27T07:37:35.092Z,2.07
2019-01-27T07:40:26.713Z,2.10
2019-01-27T07:43:07.063Z,2.33
2019-01-27T07:45:59.875Z,2.10
2019-01-27T07:48:50.101Z,2.37
2019-01-27T07:51:46.453Z,2.40
2019-01-27T07:54:28.456Z,2.30
2019-01-27T07:57:21.058Z,3.30
2019-01-27T08:00:17.551Z,2.30
2019-01-27T08:03:13.523Z,2.73
2019-01-27T08:05:59.437Z,2.40
2019-01-27T08:08:39.598Z,2.50
2019-01-27T08:11:29.464Z,2.23
2019-01-27T08:14:18.319Z,2.00
2019-01-27T08:17:26.648Z,1.93
2019-01-27T08:20:25.703Z,2.20
2019-01-27T08:23:15.778Z,2.00
2019-01-27T08:25:57.258Z,1.90
2019-01-27T08:28:43.543Z,2.10
2019-01-27T08:31:33.586Z,2.00
2019-01-27T08:34:14.507Z,2.00
2019-01-27T08:36:54.046Z,2.20
2019-01-27T08:39:43.250Z,1.80
2019-01-27T08:42:29.271Z,1.90
2019-01-27T08:45:21.997Z,2.10
2019-01-27T08:47:52.911Z,2.00
2019-01-27T08:50:23.951Z,2.10
2019-01-27T08:52:55.032Z,2.30
2019-01-27T08:55:25.900Z,2.00
2019-01-27T08:57:56.665Z,2.00
2019-01-27T09:00:41.046Z,2.10
2019-01-27T09:03:43.079Z,2.07
2019-01-27T09:06:31.128Z,2.30
2019-01-27T09:09:27.100Z,2.30
2019-01-27T09:12:29.080Z,2.30
2019-01-27T09:15:16.419Z,2.17
2019-01-27T09:18:04.869Z,1.90
2019-01-27T09:20:55.034Z,1.70
2019-01-27T09:23:41.177Z,1.70
2019-01-27T09:26:20.070Z,1.70
2019-01-27T09:29:15.901Z,1.77
2019-01-27T09:32:04.208Z,1.80
2019-01-27T09:34:46.535Z,1.77
2019-01-27T09:37:35.291Z,1.60
2019-01-27T09:40:30.418Z,1.70
2019-01-27T09:43:24.151Z,1.60
2019-01-27T09:46:11.119Z,1.40
2019-01-27T09:48:50.187Z,1.47
2019-01-27T09:51:30.106Z,1.40
2019-01-27T09:54:22.953Z,1.40
2019-01-27T09:57:12.159Z,1.30
2019-01-27T09:59:51.567Z,1.70
2019-01-27T10:02:44.327Z,1.80
2019-01-27T10:05:21.992Z,1.80
2019-01-27T10:08:15.523Z,1.70
2019-01-27T10:10:58.575Z,1.90
2019-01-27T10:13:47.152Z,1.80
2019-01-27T10:16:25.371Z,1.93
2019-01-27T10:19:12.203Z,1.73
2019-01-27T10:22:04.244Z,1.53
2019-01-27T10:25:00.340Z,1.30
2019-01-27T10:28:05.540Z,1.43
2019-01-27T10:31:07.363Z,1.53
2019-01-27T10:33:49.232Z,1.40
2019-01-27T10:36:38.904Z,1.30
2019-01-27T10:39:35.232Z,1.30
2019-01-27T10:42:25.158Z,1.40
2019-01-27T10:45:11.865Z,1.70
2019-01-27T10:48:00.534Z,1.50
2019-01-27T10:50:43.219Z,1.57
2019-01-27T10:53:34.948Z,1.80
2019-01-27T10:56:20.720Z,1.50
2019-01-27T10:59:05.620Z,1.50
2019-01-27T11:01:54.450Z,1.40
2019-01-27T11:04:43.114Z,1.50
2019-01-27T11:07:41.947Z,1.70
2019-01-27T11:10:22.167Z,1.67
2019-01-27T11:13:15.347Z,1.80
2019-01-27T11:15:55.632Z,1.80
2019-01-27T11:18:36.781Z,1.50
2019-01-27T11:21:28.185Z,1.70
2019-01-27T11:24:12.063Z,2.00
2019-01-27T11:26:50.244Z,2.10
2019-01-27T11:29:31.264Z,2.13
2019-01-27T11:32:24.511Z,2.10
2019-01-27T11:35:09.929Z,2.40
2019-01-27T11:37:57.362Z,2.27
2019-01-27T11:40:37.753Z,2.30
2019-01-27T11:43:18.394Z,2.20
2019-01-27T11:46:06.851Z,2.50
2019-01-27T11:48:43.463Z,2.10
2019-01-27T11:51:24.450Z,2.17
2019-01-27T11:53:55.700Z,2.73
2019-01-27T11:56:26.870Z,1.83
2019-01-27T11:58:57.703Z,1.90
2019-01-27T12:01:28.589Z,2.20
2019-01-27T12:03:59.912Z,1.70
2019-01-27T12:06:31.095Z,1.90
2019-01-27T12:09:02.190Z,2.07
2019-01-27T12:11:35.142Z,2.13
2019-01-27T12:14:06.771Z,2.07
2019-01-27T12:16:37.928Z,1.80
2019-01-27T12:19:09.305Z,1.90
2019-01-27T12:21:40.141Z,2.07
2019-01-27T12:24:12.023Z,2.30
2019-01-27T12:26:42.853Z,2.10
2019-01-27T12:29:13.927Z,1.83
2019-01-27T12:31:44.994Z,2.30
2019-01-27T12:34:16.019Z,2.10
2019-01-27T12:36:46.861Z,2.00
2019-01-27T12:39:17.706Z,2.17
2019-01-27T12:41:48.768Z,2.10
2019-01-27T12:44:19.642Z,2.40
2019-01-27T12:46:50.891Z,1.80
2019-01-27T12:49:22.014Z,2.20
2019-01-27T12:51:53.099Z,2.10
2019-01-27T12:54:24.149Z,1.90
2019-01-27T12:56:55.249Z,2.23
2019-01-27T12:59:26.336Z,2.17
2019-01-27T13:01:57.212Z,2.13
2019-01-27T13:04:28.312Z,2.30
2019-01-27T13:06:59.386Z,2.00
2019-01-27T13:09:30.549Z,2.00
2019-01-27T13:12:01.400Z,2.40
2019-01-27T13:14:32.491Z,2.10
2019-01-27T13:17:07.408Z,2.43
2019-01-27T13:19:36.001Z,2.20
2019-01-27T13:22:06.851Z,2.10
2019-01-27T13:24:38.197Z,2.07
2019-01-27T13:27:09.069Z,1.93
2019-01-27T13:29:39.938Z,2.00
2019-01-27T13:32:11.026Z,2.00
2019-01-27T13:34:41.812Z,2.10
2019-01-27T13:37:12.659Z,2.17
2019-01-27T13:39:43.962Z,2.47
2019-01-27T13:42:15.034Z,2.67
2019-01-27T13:44:46.060Z,2.13
2019-01-27T13:47:16.900Z,2.00
2019-01-27T13:49:47.912Z,2.10
2019-01-27T13:52:18.996Z,2.40
2019-01-27T13:54:50.362Z,2.33
2019-01-27T13:57:21.286Z,2.53
2019-01-27T13:59:52.076Z,2.63
2019-01-27T14:02:22.861Z,2.17
2019-01-27T14:04:53.706Z,2.67
2019-01-27T14:07:24.513Z,2.33
2019-01-27T14:09:55.692Z,2.50
2019-01-27T14:12:26.456Z,2.80
2019-01-27T14:14:57.307Z,2.67
2019-01-27T14:17:28.140Z,2.50
2019-01-27T14:19:59.163Z,2.10
2019-01-27T14:22:30.270Z,2.67
2019-01-27T14:25:01.130Z,2.63
2019-01-27T14:27:32.036Z,2.50
2019-01-27T14:30:03.074Z,2.50
2019-01-27T14:32:34.106Z,2.53
2019-01-27T14:35:05.707Z,2.43
2019-01-27T14:37:36.477Z,2.20
2019-01-27T14:40:09.480Z,1.90
2019-01-27T14:42:40.321Z,1.80
2019-01-27T14:45:14.225Z,2.10
2019-01-27T14:47:45.323Z,1.90
2019-01-27T14:50:18.938Z,2.20
2019-01-27T14:52:50.165Z,2.20
2019-01-27T14:55:21.277Z,2.27
2019-01-27T14:57:52.317Z,1.80
2019-01-27T15:00:25.730Z,1.87
2019-01-27T15:02:58.190Z,1.80
2019-01-27T15:05:29.116Z,1.73
2019-01-27T15:08:02.682Z,2.00
2019-01-27T15:10:35.701Z,1.80
2019-01-27T15:13:06.893Z,2.00
2019-01-27T15:15:38.054Z,1.87
2019-01-27T15:18:09.149Z,2.10
2019-01-27T15:20:43.651Z,2.00
2019-01-27T15:23:14.475Z,1.80
2019-01-27T15:25:45.411Z,1.80
2019-01-27T15:28:16.172Z,1.93
2019-01-27T15:30:46.947Z,1.63
2019-01-27T15:33:18.013Z,2.07
2019-01-27T15:35:49.046Z,2.40
2019-01-27T15:38:20.283Z,2.23
2019-01-27T15:40:51.196Z,2.10
2019-01-27T15:43:22.464Z,2.30
2019-01-27T15:45:53.472Z,2.00
2019-01-27T15:48:24.317Z,2.70
2019-01-27T15:50:55.257Z,2.80
2019-01-27T15:53:26.381Z,3.60
2019-01-27T15:55:57.466Z,5.93
2019-01-27T15:58:28.542Z,9.97
2019-01-27T16:00:59.566Z,3.93
2019-01-27T16:03:30.633Z,10.17
2019-01-27T16:06:01.604Z,3.80
2019-01-27T16:08:32.448Z,6.40
2019-01-27T16:11:03.630Z,4.57
2019-01-27T16:13:34.528Z,2.40
2019-01-27T16:16:05.684Z,8.50
2019-01-27T16:18:38.365Z,2.67
2019-01-27T16:21:09.541Z,2.20
2019-01-27T16:24:08.411Z,7.20
2019-01-27T16:26:39.435Z,4.37
2019-01-27T16:29:10.279Z,7.10
2019-01-27T16:31:45.266Z,6.60
2019-01-27T16:34:33.913Z,7.07
2019-01-27T16:37:04.987Z,11.83
2019-01-27T16:39:36.145Z,14.77
2019-01-27T16:42:07.197Z,37.03
2019-01-27T16:44:38.235Z,20.43
2019-01-27T16:47:09.586Z,12.10
2019-01-27T16:49:40.439Z,6.40
2019-01-27T16:52:12.400Z,10.07
2019-01-27T16:54:43.483Z,5.37
2019-01-27T16:57:14.563Z,4.57
2019-01-27T16:59:45.665Z,4.60
2019-01-27T17:02:17.537Z,4.50
2019-01-27T17:04:48.419Z,5.53
2019-01-27T17:07:19.429Z,3.40
2019-01-27T17:09:50.458Z,3.20
2019-01-27T17:12:21.548Z,3.30
2019-01-27T17:14:52.556Z,3.23
2019-01-27T17:17:23.567Z,2.40
2019-01-27T17:19:54.335Z,2.47
2019-01-27T17:22:25.115Z,3.00
2019-01-27T17:24:56.248Z,3.00
2019-01-27T17:27:27.343Z,2.90
2019-01-27T17:29:59.300Z,2.73
2019-01-27T17:32:30.087Z,3.90
2019-01-27T17:35:00.935Z,2.90
2019-01-27T17:37:31.910Z,4.77
2019-01-27T17:40:02.758Z,2.80
2019-01-27T17:42:33.680Z,2.60
2019-01-27T17:45:06.301Z,2.37
2019-01-27T17:47:37.500Z,2.00
2019-01-27T17:50:10.588Z,2.07
2019-01-27T17:52:42.085Z,2.20
2019-01-27T17:55:34.275Z,1.90
2019-01-27T17:58:24.418Z,2.70
2019-01-27T18:01:11.531Z,2.33
2019-01-27T18:03:47.950Z,2.17
2019-01-27T18:06:32.662Z,2.40
2019-01-27T18:09:13.418Z,2.20
2019-01-27T18:11:49.357Z,1.83
2019-01-27T18:14:28.052Z,1.77
2019-01-27T18:16:59.069Z,1.70
2019-01-27T18:19:29.937Z,1.73
2019-01-27T18:22:00.868Z,1.90
2019-01-27T18:24:32.016Z,2.30
2019-01-27T18:27:02.892Z,2.20
2019-01-27T18:29:33.699Z,2.80
2019-01-27T18:32:04.680Z,2.50
2019-01-27T18:34:35.614Z,2.90
2019-01-27T18:37:06.651Z,3.87
2019-01-27T18:39:37.476Z,4.10
2019-01-27T18:42:08.564Z,2.80
2019-01-27T18:44:39.427Z,3.00
2019-01-27T18:47:10.524Z,3.67
2019-01-27T18:49:41.520Z,8.10
2019-01-27T18:52:12.583Z,4.00
2019-01-27T18:54:54.981Z,5.00
2019-01-27T18:57:35.207Z,4.73
2019-01-27T19:00:16.481Z,5.80
2019-01-27T19:03:05.518Z,3.50
2019-01-27T19:05:54.101Z,3.70
2019-01-27T19:08:44.493Z,2.77
2019-01-27T19:11:37.566Z,2.83
2019-01-27T19:14:21.116Z,4.13
2019-01-27T19:17:16.878Z,2.80
2019-01-27T19:19:56.201Z,3.53
2019-01-27T19:22:57.923Z,4.30
2019-01-27T19:25:56.774Z,4.70
2019-01-27T19:28:46.912Z,3.20
2019-01-27T19:31:25.307Z,3.70
2019-01-27T19:34:21.274Z,2.63
2019-01-27T19:37:04.086Z,3.17
2019-01-27T19:39:54.029Z,5.93
2019-01-27T19:42:32.424Z,6.43
2019-01-27T19:45:08.815Z,4.83
2019-01-27T19:47:47.511Z,3.60
2019-01-27T19:50:56.816Z,5.80
2019-01-27T19:53:56.062Z,4.40
2019-01-27T19:56:45.151Z,5.40
2019-01-27T19:59:31.099Z,2.90
2019-01-27T20:02:28.063Z,4.70
2019-01-27T20:05:07.487Z,3.10
2019-01-27T20:07:55.455Z,2.70
2019-01-27T20:10:50.059Z,3.30
2019-01-27T20:13:29.788Z,2.20
2019-01-27T20:16:20.521Z,2.70
2019-01-27T20:19:09.050Z,2.30
2019-01-27T20:21:53.276Z,2.47
2019-01-27T20:24:49.317Z,2.30
2019-01-27T20:27:30.763Z,2.20
2019-01-27T20:30:21.520Z,2.70
2019-01-27T20:33:03.256Z,2.23
2019-01-27T20:36:02.546Z,2.50
2019-01-27T20:38:46.761Z,2.63
2019-01-27T20:41:36.787Z,2.80
2019-01-27T20:44:09.886Z,2.50
2019-01-27T20:46:54.575Z,2.23
2019-01-27T20:50:02.371Z,2.50
2019-01-27T20:52:52.303Z,2.77
2019-01-27T20:55:40.608Z,2.70
2019-01-27T20:58:36.485Z,2.60
2019-01-27T21:01:35.345Z,2.70
2019-01-27T21:04:13.865Z,2.50
2019-01-27T21:07:06.216Z,2.70
2019-01-27T21:09:57.571Z,2.70
2019-01-27T21:12:46.009Z,2.60
2019-01-27T21:15:30.035Z,2.70
2019-01-27T21:18:18.252Z,2.90
2019-01-27T21:20:53.536Z,2.87
2019-01-27T21:23:22.041Z,3.07
2019-01-27T21:25:53.063Z,3.20
2019-01-27T21:28:24.061Z,3.20
2019-01-27T21:30:55.142Z,5.67
2019-01-27T21:33:25.909Z,9.87
2019-01-27T21:35:57.037Z,4.73
2019-01-27T21:38:28.064Z,4.67
2019-01-27T21:40:58.930Z,5.30
2019-01-27T21:43:30.056Z,4.27
2019-01-27T21:46:00.857Z,6.23
2019-01-27T21:48:32.923Z,4.17
2019-01-27T21:51:04.019Z,3.57
2019-01-27T21:53:35.026Z,3.70
2019-01-27T21:56:05.888Z,3.90
2019-01-27T21:58:37.396Z,4.13
2019-01-27T22:01:08.609Z,4.07
2019-01-27T22:03:39.523Z,4.20
2019-01-27T22:06:10.786Z,4.53
2019-01-27T22:08:41.548Z,4.80
2019-01-27T22:11:12.664Z,4.10
2019-01-27T22:13:43.976Z,3.90
2019-01-27T22:16:14.986Z,2.87
2019-01-27T22:18:46.195Z,2.70
2019-01-27T22:21:16.978Z,2.90
2019-01-27T22:23:47.755Z,3.00
2019-01-27T22:26:18.680Z,2.87
2019-01-27T22:28:49.922Z,3.03
2019-01-27T22:31:21.190Z,3.20
2019-01-27T22:33:51.952Z,3.30
2019-01-27T22:36:23.057Z,3.73
2019-01-27T22:38:54.137Z,4.00
2019-01-27T22:41:25.236Z,3.73
2019-01-27T22:43:56.074Z,4.40
2019-01-27T22:46:26.923Z,4.30
2019-01-27T22:48:57.691Z,4.13
2019-01-27T22:51:28.549Z,4.63
2019-01-27T22:53:59.550Z,4.70
2019-01-27T22:56:30.401Z,4.50
2019-01-27T22:59:01.242Z,4.70
2019-01-27T23:01:32.096Z,4.30
2019-01-27T23:04:03.131Z,4.13
2019-01-27T23:06:34.981Z,4.53
2019-01-27T23:09:11.614Z,4.63
2019-01-27T23:11:42.533Z,4.70
2019-01-27T23:14:13.610Z,4.70
2019-01-27T23:16:44.383Z,4.70
2019-01-27T23:19:15.485Z,4.80
2019-01-27T23:24:21.985Z,4.70
2019-01-27T23:26:53.176Z,4.80
2019-01-27T23:29:23.955Z,4.73
2019-01-27T23:31:54.743Z,4.97
2019-01-27T23:34:25.886Z,4.90
2019-01-27T23:36:56.790Z,5.10
2019-01-27T23:39:27.703Z,4.77
2019-01-27T23:41:58.710Z,4.67
2019-01-27T23:44:29.544Z,5.57
2019-01-27T23:47:00.667Z,4.70
2019-01-27T23:49:31.664Z,5.17
2019-01-27T23:52:02.522Z,5.23
2019-01-27T23:54:33.365Z,5.63
2019-01-27T23:57:04.603Z,4.90
2019-01-27T23:59:35.457Z,5.20
